Time;durP1;ratioP1;P1;durP2;ratioP2;P2;SDS_P1;SDS_P2;PMS_P1;PMS_P2;Temp;Humidity;BMP_temperature;BMP_pressure;BME280_temperature;BME280_humidity;BME280_pressure;Samples;Min_cycle;Max_cycle;Signal;HPM_P1;HPM_P2
2023/06/21 00:00:15;;;;;;;1.70;1.60;;;24.30;45.90;;;;;;5013031;28;20217;-70
2023/06/21 00:02:42;;;;;;;2.20;2.10;;;24.30;45.80;;;;;;5014196;28;20461;-70
2023/06/21 00:05:08;;;;;;;2.07;1.97;;;24.30;45.90;;;;;;5018796;28;20467;-69
2023/06/21 00:07:34;;;;;;;1.90;1.80;;;24.30;45.90;;;;;;4995841;28;20464;-69
2023/06/21 00:10:01;;;;;;;2.10;2.00;;;24.30;45.90;;;;;;5003697;28;20463;-69
2023/06/21 00:12:27;;;;;;;1.77;1.67;;;24.30;45.90;;;;;;5017444;28;20846;-70
2023/06/21 00:14:52;;;;;;;2.00;1.90;;;24.30;45.80;;;;;;5001844;28;20488;-68
2023/06/21 00:17:18;;;;;;;1.60;1.50;;;24.30;45.90;;;;;;5014283;28;20552;-70
2023/06/21 00:19:44;;;;;;;1.60;1.50;;;24.30;45.90;;;;;;5017318;28;20301;-69
2023/06/21 00:22:10;;;;;;;1.97;1.87;;;24.30;45.90;;;;;;5007538;28;20571;-69
2023/06/21 00:24:35;;;;;;;1.80;1.70;;;24.30;45.90;;;;;;5016101;28;22975;-70
2023/06/21 00:27:01;;;;;;;1.70;1.60;;;24.30;45.90;;;;;;5000778;28;20462;-70
2023/06/21 00:29:27;;;;;;;2.10;2.00;;;24.30;45.90;;;;;;5018383;28;20621;-69
2023/06/21 00:31:52;;;;;;;1.50;1.40;;;24.30;45.90;;;;;;5017789;28;20216;-69
2023/06/21 00:34:18;;;;;;;1.70;1.60;;;24.30;45.90;;;;;;5010005;28;22924;-70
2023/06/21 00:36:43;;;;;;;1.80;1.70;;;24.30;45.90;;;;;;5015913;28;20221;-69
2023/06/21 00:39:10;;;;;;;1.70;1.60;;;24.30;45.90;;;;;;5012191;28;20234;-72
2023/06/21 00:41:36;;;;;;;1.80;1.70;;;24.30;45.90;;;;;;5008594;28;20231;-70
2023/06/21 00:44:02;;;;;;;1.77;1.67;;;24.30;45.90;;;;;;5009780;28;20444;-69
2023/06/21 00:46:27;;;;;;;1.80;1.70;;;24.30;45.90;;;;;;5010607;28;20224;-69
2023/06/21 00:48:53;;;;;;;1.80;1.70;;;24.30;46.00;;;;;;4998919;28;20219;-69
2023/06/21 00:51:19;;;;;;;1.97;1.67;;;24.30;45.90;;;;;;4999487;28;20238;-67
2023/06/21 00:53:45;;;;;;;2.00;1.90;;;24.30;45.90;;;;;;5014752;28;20227;-69
2023/06/21 00:56:11;;;;;;;1.90;1.70;;;24.30;46.00;;;;;;5015829;28;20554;-69
2023/06/21 00:58:37;;;;;;;1.70;1.60;;;24.30;46.00;;;;;;5006398;28;20464;-69
2023/06/21 01:01:02;;;;;;;1.50;1.40;;;24.30;46.00;;;;;;5010702;28;20223;-69
2023/06/21 01:03:28;;;;;;;1.90;1.80;;;24.30;46.00;;;;;;5018641;28;20787;-69
2023/06/21 01:06:33;;;;;;;1.97;1.87;;;24.30;46.00;;;;;;5019310;28;20581;-70
2023/06/21 01:09:38;;;;;;;1.97;1.87;;;24.30;46.00;;;;;;5006725;28;20223;-69
2023/06/21 01:12:12;;;;;;;1.70;1.60;;;24.30;46.00;;;;;;4998153;28;20469;-68
2023/06/21 01:15:03;;;;;;;1.60;1.50;;;24.30;46.10;;;;;;5000793;28;20510;-68
2023/06/21 01:17:32;;;;;;;1.70;1.60;;;24.30;46.10;;;;;;4993572;28;20465;-69
2023/06/21 01:19:58;;;;;;;1.60;1.50;;;24.20;46.00;;;;;;4994206;28;20453;-69
2023/06/21 01:22:41;;;;;;;1.80;1.70;;;24.30;46.10;;;;;;4997650;28;20896;-67
2023/06/21 01:25:35;;;;;;;1.60;1.50;;;24.30;46.00;;;;;;4995749;28;20246;-68
2023/06/21 01:28:27;;;;;;;1.53;1.43;;;24.30;46.10;;;;;;4997287;28;20447;-68
2023/06/21 01:30:57;;;;;;;1.70;1.60;;;24.30;46.10;;;;;;5007078;28;20510;-68
2023/06/21 01:33:23;;;;;;;1.60;1.50;;;24.30;46.10;;;;;;5012895;28;21041;-67
2023/06/21 01:35:54;;;;;;;1.50;1.40;;;24.30;46.10;;;;;;5032928;28;20543;-68
2023/06/21 01:38:20;;;;;;;1.70;1.60;;;24.30;46.10;;;;;;5015866;28;20410;-68
2023/06/21 01:40:46;;;;;;;1.63;1.50;;;24.30;46.10;;;;;;5006792;28;20473;-68
2023/06/21 01:43:12;;;;;;;1.60;1.50;;;24.30;46.10;;;;;;5012454;28;20468;-67
2023/06/21 01:45:38;;;;;;;1.60;1.50;;;24.30;46.10;;;;;;5015980;28;20230;-68
2023/06/21 01:48:05;;;;;;;1.50;1.40;;;24.30;46.20;;;;;;5013521;28;20495;-68
2023/06/21 01:50:31;;;;;;;1.87;1.77;;;24.30;46.10;;;;;;5010258;28;20473;-67
2023/06/21 01:52:58;;;;;;;1.60;1.50;;;24.30;46.10;;;;;;5011009;28;21241;-69
2023/06/21 01:55:25;;;;;;;2.00;1.90;;;24.20;46.10;;;;;;5018151;28;20470;-68
2023/06/21 01:57:52;;;;;;;1.60;1.50;;;24.30;46.30;;;;;;5010597;28;20463;-68
2023/06/21 02:00:21;;;;;;;1.57;1.47;;;24.30;46.20;;;;;;5012770;28;20960;-68
2023/06/21 02:02:55;;;;;;;1.80;1.70;;;24.30;46.20;;;;;;5008826;28;20507;-68
2023/06/21 02:05:21;;;;;;;1.57;1.47;;;24.30;46.10;;;;;;5008555;28;21038;-68
2023/06/21 02:07:48;;;;;;;1.60;1.50;;;24.30;46.20;;;;;;5018356;28;20962;-68
2023/06/21 02:10:15;;;;;;;1.60;1.50;;;24.20;46.10;;;;;;5017047;28;20475;-68
2023/06/21 02:12:41;;;;;;;1.83;1.73;;;24.20;46.10;;;;;;5013039;28;20475;-68
2023/06/21 02:15:08;;;;;;;1.53;1.43;;;24.30;46.10;;;;;;5003602;28;20483;-68
2023/06/21 02:17:34;;;;;;;1.67;1.57;;;24.30;46.20;;;;;;5007717;28;20472;-70
2023/06/21 02:20:00;;;;;;;1.80;1.70;;;24.20;46.20;;;;;;5015647;28;21020;-68
2023/06/21 02:22:25;;;;;;;2.10;2.00;;;24.30;46.20;;;;;;5015030;28;20706;-68
2023/06/21 02:24:51;;;;;;;1.40;1.30;;;24.20;46.20;;;;;;5014501;28;20241;-67
2023/06/21 02:27:16;;;;;;;1.60;1.50;;;24.20;46.20;;;;;;5012038;28;20253;-68
2023/06/21 02:29:42;;;;;;;1.73;1.63;;;24.20;46.20;;;;;;5015236;28;20270;-68
2023/06/21 02:32:08;;;;;;;1.80;1.70;;;24.30;46.20;;;;;;5014086;28;20253;-67
2023/06/21 02:34:33;;;;;;;1.67;1.57;;;24.20;46.10;;;;;;5013323;28;20227;-68
2023/06/21 02:36:59;;;;;;;1.73;1.63;;;24.20;46.20;;;;;;5016036;28;20223;-68
2023/06/21 02:39:24;;;;;;;1.60;1.50;;;24.30;46.20;;;;;;5005224;28;20281;-68
2023/06/21 02:41:51;;;;;;;1.70;1.60;;;24.20;46.20;;;;;;5002234;28;20266;-68
2023/06/21 02:44:17;;;;;;;1.67;1.57;;;24.20;46.20;;;;;;5013646;28;20713;-68
2023/06/21 02:46:43;;;;;;;1.77;1.67;;;24.20;46.20;;;;;;5010339;28;21117;-68
2023/06/21 02:49:08;;;;;;;1.70;1.60;;;24.20;46.20;;;;;;5006082;28;20460;-68
2023/06/21 02:51:35;;;;;;;1.63;1.53;;;24.20;46.20;;;;;;5006109;28;20613;-68
2023/06/21 02:54:01;;;;;;;1.67;1.57;;;24.20;46.30;;;;;;5013450;28;20698;-68
2023/06/21 02:56:26;;;;;;;1.50;1.40;;;24.20;46.30;;;;;;5011936;28;20452;-69
2023/06/21 02:58:53;;;;;;;1.60;1.50;;;24.20;46.30;;;;;;5017159;28;20281;-69
2023/06/21 03:01:19;;;;;;;1.83;1.73;;;24.20;46.20;;;;;;5014290;28;20225;-69
2023/06/21 03:03:44;;;;;;;1.63;1.53;;;24.20;46.20;;;;;;5015830;28;20460;-68
2023/06/21 03:06:11;;;;;;;1.87;1.77;;;24.20;46.30;;;;;;5003178;28;20247;-68
2023/06/21 03:08:38;;;;;;;1.70;1.60;;;24.20;46.30;;;;;;5011496;28;20223;-68
2023/06/21 03:11:08;;;;;;;1.47;1.37;;;24.20;46.30;;;;;;5012652;28;20473;-68
2023/06/21 03:13:35;;;;;;;1.80;1.70;;;24.20;46.30;;;;;;5010921;28;20456;-68
2023/06/21 03:16:02;;;;;;;1.97;1.87;;;24.20;46.30;;;;;;5001791;28;21036;-68
2023/06/21 03:18:28;;;;;;;1.57;1.47;;;24.20;46.30;;;;;;5013965;28;20547;-68
2023/06/21 03:20:54;;;;;;;2.20;2.10;;;24.20;46.30;;;;;;5009826;28;21387;-67
2023/06/21 03:23:19;;;;;;;1.63;1.53;;;24.20;46.30;;;;;;5001970;28;20964;-67
2023/06/21 03:25:45;;;;;;;1.63;1.53;;;24.20;47.10;;;;;;5008999;28;20230;-68
2023/06/21 03:28:10;;;;;;;1.70;1.60;;;24.20;46.30;;;;;;5019649;28;20320;-68
2023/06/21 03:30:36;;;;;;;1.73;1.63;;;24.20;46.30;;;;;;5008290;28;20225;-68
2023/06/21 03:33:02;;;;;;;1.60;1.50;;;24.20;46.30;;;;;;5010851;28;20226;-68
2023/06/21 03:35:29;;;;;;;1.77;1.30;;;24.20;46.30;;;;;;5014328;28;20215;-68
2023/06/21 03:37:54;;;;;;;1.90;1.80;;;24.20;46.40;;;;;;5012473;28;20265;-68
2023/06/21 03:40:20;;;;;;;1.80;1.70;;;24.20;46.30;;;;;;5013565;28;20554;-68
2023/06/21 03:42:46;;;;;;;1.70;1.60;;;24.20;46.30;;;;;;5011408;28;20231;-68
2023/06/21 03:45:12;;;;;;;1.40;1.30;;;24.20;46.30;;;;;;5011088;28;20472;-69
2023/06/21 03:47:39;;;;;;;1.73;1.63;;;24.20;46.40;;;;;;5020285;28;20333;-68
2023/06/21 03:50:06;;;;;;;1.70;1.60;;;24.20;46.30;;;;;;5019653;28;21001;-68
2023/06/21 03:52:31;;;;;;;1.60;1.50;;;24.20;46.40;;;;;;5008278;28;20472;-68
2023/06/21 03:54:57;;;;;;;2.00;1.90;;;24.20;46.40;;;;;;5021876;28;20457;-68
2023/06/21 03:57:22;;;;;;;2.20;1.90;;;24.20;46.40;;;;;;5012636;28;20281;-68
2023/06/21 03:59:48;;;;;;;1.93;1.83;;;24.20;46.40;;;;;;5011534;28;22090;-69
2023/06/21 04:02:13;;;;;;;2.13;2.03;;;24.20;46.40;;;;;;5005198;28;20219;-74
2023/06/21 04:04:39;;;;;;;1.80;1.70;;;24.20;46.40;;;;;;4998389;28;20624;-71
2023/06/21 04:07:05;;;;;;;1.87;1.77;;;24.20;46.40;;;;;;5008467;28;20817;-72
2023/06/21 04:09:30;;;;;;;1.73;1.63;;;24.20;46.40;;;;;;5006589;28;20223;-72
2023/06/21 04:11:57;;;;;;;2.60;2.40;;;24.20;46.30;;;;;;5003872;28;20294;-72
2023/06/21 04:14:22;;;;;;;1.70;1.60;;;24.30;46.30;;;;;;5008289;28;20281;-73
2023/06/21 04:16:48;;;;;;;1.70;1.60;;;24.30;46.30;;;;;;4997224;28;20851;-73
2023/06/21 04:19:13;;;;;;;1.90;1.80;;;24.30;47.10;;;;;;5001271;28;20330;-72
2023/06/21 04:21:39;;;;;;;2.13;2.03;;;24.30;46.20;;;;;;5005391;28;20615;-72
2023/06/21 04:24:05;;;;;;;1.73;1.63;;;24.30;46.20;;;;;;5000085;28;20306;-72
2023/06/21 04:26:30;;;;;;;1.83;1.73;;;24.30;46.20;;;;;;5012976;28;21038;-72
2023/06/21 04:28:56;;;;;;;1.80;1.70;;;24.30;46.10;;;;;;5024674;28;20229;-72
2023/06/21 04:31:21;;;;;;;1.77;1.67;;;24.30;46.10;;;;;;5014167;28;20284;-73
2023/06/21 04:33:47;;;;;;;1.87;1.77;;;24.30;46.20;;;;;;5013834;28;20227;-72
2023/06/21 04:36:17;;;;;;;1.77;1.67;;;24.30;46.10;;;;;;5016773;28;20682;-72
2023/06/21 04:38:43;;;;;;;1.80;1.70;;;24.30;46.20;;;;;;5018972;28;20237;-72
2023/06/21 04:41:09;;;;;;;1.80;1.70;;;24.30;46.10;;;;;;5018063;28;20986;-73
2023/06/21 04:43:35;;;;;;;1.90;1.80;;;24.30;46.10;;;;;;5009639;28;20468;-74
2023/06/21 04:46:01;;;;;;;2.07;1.80;;;24.30;46.10;;;;;;5005268;28;20720;-73
2023/06/21 04:48:27;;;;;;;1.90;1.80;;;24.30;46.20;;;;;;5017556;28;20539;-71
2023/06/21 04:50:52;;;;;;;2.23;2.13;;;24.30;46.10;;;;;;5020327;28;20329;-73
2023/06/21 04:53:18;;;;;;;2.10;2.00;;;24.30;46.10;;;;;;5003795;28;20592;-72
2023/06/21 04:55:43;;;;;;;1.80;1.70;;;24.40;46.20;;;;;;5001770;28;20323;-72
2023/06/21 04:58:09;;;;;;;1.80;1.70;;;24.30;46.10;;;;;;5022331;28;20261;-72
2023/06/21 05:00:36;;;;;;;1.83;1.73;;;24.40;46.20;;;;;;5001088;28;20223;-71
2023/06/21 05:03:02;;;;;;;2.10;2.00;;;24.30;46.10;;;;;;4996354;28;21042;-72
2023/06/21 05:05:28;;;;;;;2.00;1.90;;;24.30;46.10;;;;;;5000838;28;20484;-71
2023/06/21 05:07:54;;;;;;;2.07;1.97;;;24.30;46.10;;;;;;5009872;28;20975;-71
2023/06/21 05:10:19;;;;;;;2.30;2.20;;;24.30;46.20;;;;;;5015616;28;20296;-72
2023/06/21 05:12:45;;;;;;;1.90;1.80;;;24.30;46.20;;;;;;5014338;28;20357;-71
2023/06/21 05:15:10;;;;;;;2.00;1.80;;;24.30;46.20;;;;;;5017293;28;20222;-71
2023/06/21 05:17:36;;;;;;;1.90;1.80;;;24.40;46.30;;;;;;4999122;28;20227;-70
2023/06/21 05:20:04;;;;;;;2.23;2.13;;;24.30;46.30;;;;;;5008200;28;20227;-70
2023/06/21 05:22:30;;;;;;;1.93;1.83;;;24.40;46.30;;;;;;5019934;28;20686;-72
2023/06/21 05:24:55;;;;;;;2.30;1.80;;;24.30;46.20;;;;;;5013537;28;20475;-71
2023/06/21 05:27:21;;;;;;;1.90;1.80;;;24.30;46.20;;;;;;5002019;28;20631;-72
2023/06/21 05:29:46;;;;;;;1.87;1.70;;;24.30;46.20;;;;;;5005653;28;20219;-71
2023/06/21 05:32:12;;;;;;;1.93;1.83;;;24.40;46.30;;;;;;5015635;28;20222;-72
2023/06/21 05:34:38;;;;;;;4.13;2.57;;;24.30;46.30;;;;;;5007561;28;20305;-71
2023/06/21 05:37:03;;;;;;;2.10;2.00;;;24.30;46.20;;;;;;5007116;28;20227;-72
2023/06/21 05:39:29;;;;;;;2.10;2.00;;;24.30;46.30;;;;;;5011206;28;20238;-72
2023/06/21 05:41:54;;;;;;;2.03;1.83;;;24.30;46.30;;;;;;5020745;28;20228;-72
2023/06/21 05:44:20;;;;;;;2.47;1.90;;;24.40;46.50;;;;;;4996661;28;20232;-71
2023/06/21 05:46:45;;;;;;;2.00;1.90;;;24.30;46.30;;;;;;5006024;28;20698;-71
2023/06/21 05:49:11;;;;;;;2.23;2.13;;;24.30;46.30;;;;;;5021856;28;20709;-71
2023/06/21 05:51:37;;;;;;;3.87;1.80;;;24.40;46.40;;;;;;5018135;28;20233;-71
2023/06/21 05:54:03;;;;;;;2.33;2.17;;;24.40;46.40;;;;;;5018672;28;20417;-72
2023/06/21 05:56:29;;;;;;;2.30;2.00;;;24.40;46.50;;;;;;5021837;28;20227;-71
2023/06/21 05:58:54;;;;;;;2.30;2.10;;;24.40;46.50;;;;;;5009490;28;20488;-71
2023/06/21 06:01:20;;;;;;;2.70;2.50;;;24.30;46.30;;;;;;4996389;28;20274;-71
2023/06/21 06:03:45;;;;;;;1.80;1.70;;;24.40;46.40;;;;;;4999375;28;20284;-71
2023/06/21 06:06:15;;;;;;;2.27;2.17;;;24.40;46.50;;;;;;4999865;28;20215;-73
2023/06/21 06:08:41;;;;;;;2.07;1.87;;;24.40;46.50;;;;;;5003199;28;20707;-71
2023/06/21 06:11:07;;;;;;;2.03;1.93;;;24.30;46.30;;;;;;4997863;28;20836;-71
2023/06/21 06:13:32;;;;;;;2.23;2.13;;;24.30;46.30;;;;;;5002433;28;20239;-71
2023/06/21 06:15:58;;;;;;;2.53;2.33;;;24.40;46.50;;;;;;5014570;28;20246;-71
2023/06/21 06:18:23;;;;;;;2.60;2.33;;;24.40;46.50;;;;;;5016703;28;20230;-71
2023/06/21 06:20:49;;;;;;;2.07;1.97;;;24.40;46.50;;;;;;5025427;28;20249;-71
2023/06/21 06:23:14;;;;;;;2.00;1.90;;;24.40;46.80;;;;;;5022075;28;20260;-71
2023/06/21 06:25:40;;;;;;;2.20;2.10;;;24.40;46.60;;;;;;5017259;28;20337;-73
2023/06/21 06:28:06;;;;;;;2.00;1.90;;;24.40;46.50;;;;;;5018761;28;20329;-71
2023/06/21 06:30:32;;;;;;;2.33;2.23;;;24.40;46.50;;;;;;5016739;28;20705;-72
2023/06/21 06:32:58;;;;;;;2.27;2.10;;;24.40;46.60;;;;;;5014909;28;20579;-71
2023/06/21 06:35:23;;;;;;;2.00;1.90;;;24.40;46.50;;;;;;5014491;28;20262;-71
2023/06/21 06:37:49;;;;;;;2.13;2.03;;;24.40;46.50;;;;;;5014777;28;20296;-71
2023/06/21 06:40:14;;;;;;;2.63;2.43;;;24.40;46.50;;;;;;5009589;28;20273;-72
2023/06/21 06:42:40;;;;;;;2.30;2.20;;;24.40;46.50;;;;;;5013157;28;20234;-71
2023/06/21 06:45:07;;;;;;;2.20;2.10;;;24.40;46.50;;;;;;5010428;28;21202;-71
2023/06/21 06:47:32;;;;;;;2.20;2.10;;;24.40;46.50;;;;;;5012481;28;20785;-72
2023/06/21 06:49:58;;;;;;;1.90;1.80;;;24.40;46.60;;;;;;5000375;28;20472;-72
2023/06/21 06:52:24;;;;;;;2.00;1.90;;;24.40;46.60;;;;;;5014852;28;20674;-72
2023/06/21 06:54:50;;;;;;;2.57;2.37;;;24.40;46.50;;;;;;5010194;28;20457;-72
2023/06/21 06:57:15;;;;;;;2.40;2.30;;;24.40;46.60;;;;;;5001413;28;20253;-71
2023/06/21 06:59:41;;;;;;;2.60;2.50;;;24.40;46.50;;;;;;5003203;28;20237;-71
2023/06/21 07:02:06;;;;;;;2.20;2.10;;;24.40;46.50;;;;;;5014992;28;20215;-71
2023/06/21 07:04:32;;;;;;;2.20;2.10;;;24.40;46.60;;;;;;5007583;28;20825;-71
2023/06/21 07:07:00;;;;;;;2.80;2.60;;;24.40;46.60;;;;;;5019437;28;20342;-71
2023/06/21 07:09:26;;;;;;;2.43;2.33;;;24.40;46.60;;;;;;5021764;28;20312;-70
2023/06/21 07:11:56;;;;;;;4.33;2.27;;;24.40;46.60;;;;;;5018092;28;20882;-70
2023/06/21 07:14:24;;;;;;;2.33;2.23;;;24.40;46.60;;;;;;5001604;28;20219;-70
2023/06/21 07:16:50;;;;;;;2.70;2.50;;;24.40;46.60;;;;;;5015843;28;20471;-72
2023/06/21 07:19:16;;;;;;;2.47;2.27;;;24.40;46.60;;;;;;5007031;28;21126;-70
2023/06/21 07:21:42;;;;;;;2.13;2.03;;;24.40;46.60;;;;;;5017025;28;20514;-70
2023/06/21 07:24:07;;;;;;;2.30;2.20;;;24.40;46.60;;;;;;5020981;28;20253;-71
2023/06/21 07:26:33;;;;;;;2.63;2.53;;;24.40;46.50;;;;;;5013817;28;20238;-71
2023/06/21 07:28:59;;;;;;;2.30;2.20;;;24.40;46.60;;;;;;5017156;28;20300;-71
2023/06/21 07:31:25;;;;;;;2.30;2.20;;;24.40;46.60;;;;;;5022724;28;20263;-70
2023/06/21 07:33:55;;;;;;;2.40;2.30;;;24.40;46.60;;;;;;5023282;28;20562;-70
2023/06/21 07:36:21;;;;;;;2.07;1.97;;;24.40;46.60;;;;;;5016975;28;20230;-71
2023/06/21 07:38:48;;;;;;;2.23;2.13;;;24.40;46.60;;;;;;5015956;28;20538;-71
2023/06/21 07:41:13;;;;;;;2.20;2.10;;;24.40;46.60;;;;;;5006259;28;20219;-71
2023/06/21 07:43:39;;;;;;;2.63;2.50;;;24.40;46.60;;;;;;5021686;28;20487;-70
2023/06/21 07:46:05;;;;;;;2.50;2.40;;;24.40;46.60;;;;;;5019559;28;20249;-70
2023/06/21 07:48:30;;;;;;;2.50;2.40;;;24.40;46.60;;;;;;5020997;28;20230;-70
2023/06/21 07:50:56;;;;;;;2.90;2.70;;;24.40;46.60;;;;;;5015174;28;20326;-71
2023/06/21 07:53:21;;;;;;;2.47;2.27;;;24.40;46.60;;;;;;5017908;28;20210;-70
2023/06/21 07:55:47;;;;;;;2.50;2.40;;;24.40;46.60;;;;;;5018304;28;20325;-71
2023/06/21 07:58:12;;;;;;;2.50;2.40;;;24.40;46.60;;;;;;5011786;28;20301;-70
2023/06/21 08:00:38;;;;;;;2.27;2.17;;;24.40;46.60;;;;;;5019882;28;20219;-71
2023/06/21 08:03:03;;;;;;;2.60;2.40;;;24.40;46.60;;;;;;5023140;28;20206;-71
2023/06/21 08:05:29;;;;;;;2.60;2.50;;;24.40;46.70;;;;;;5013052;28;20356;-71
2023/06/21 08:07:58;;;;;;;2.50;2.40;;;24.40;46.60;;;;;;5022648;28;20249;-71
2023/06/21 08:10:23;;;;;;;2.97;2.83;;;24.40;46.70;;;;;;5015198;28;20226;-71
2023/06/21 08:12:49;;;;;;;2.63;2.50;;;24.40;46.60;;;;;;5017493;28;20443;-70
2023/06/21 08:15:15;;;;;;;2.60;2.50;;;24.40;46.70;;;;;;5017974;28;20253;-70
2023/06/21 08:17:40;;;;;;;2.50;2.40;;;24.40;46.70;;;;;;5023194;28;20566;-70
2023/06/21 08:20:06;;;;;;;2.40;2.30;;;24.40;46.60;;;;;;5016450;28;20230;-71
2023/06/21 08:22:32;;;;;;;3.03;2.83;;;24.50;46.70;;;;;;5011573;28;20243;-70
2023/06/21 08:24:57;;;;;;;2.50;2.40;;;24.40;46.60;;;;;;5018977;28;20563;-71
2023/06/21 08:27:23;;;;;;;3.27;3.07;;;24.40;46.60;;;;;;5017528;28;20269;-71
2023/06/21 08:29:49;;;;;;;2.87;2.67;;;24.40;46.60;;;;;;4999230;28;20238;-71
2023/06/21 08:32:14;;;;;;;2.73;2.63;;;24.40;46.60;;;;;;5001048;28;20690;-70
2023/06/21 08:34:40;;;;;;;2.43;2.33;;;24.40;46.60;;;;;;4999020;28;21065;-71
2023/06/21 08:37:05;;;;;;;2.43;2.33;;;24.40;46.60;;;;;;4999607;28;20301;-71
2023/06/21 08:39:31;;;;;;;2.30;2.20;;;24.40;46.70;;;;;;4998024;28;20576;-71
2023/06/21 08:41:56;;;;;;;2.63;2.53;;;24.40;46.60;;;;;;5006221;28;20253;-71
2023/06/21 08:44:22;;;;;;;2.63;2.53;;;24.40;46.60;;;;;;5009996;28;20233;-71
2023/06/21 08:46:51;;;;;;;3.10;2.93;;;24.40;46.60;;;;;;5018465;28;20234;-71
2023/06/21 08:49:18;;;;;;;2.83;2.63;;;24.40;46.70;;;;;;5017903;28;21722;-71
2023/06/21 08:51:46;;;;;;;2.63;2.53;;;24.40;46.60;;;;;;5006553;28;20823;-70
2023/06/21 08:54:13;;;;;;;2.90;2.70;;;24.50;46.70;;;;;;4998040;28;20854;-70
2023/06/21 08:56:57;;;;;;;2.53;2.33;;;24.50;46.70;;;;;;5011871;28;20460;-71
2023/06/21 08:59:44;;;;;;;2.87;2.67;;;24.50;46.70;;;;;;5009497;28;20476;-71
2023/06/21 09:02:28;;;;;;;2.70;2.60;;;24.50;46.70;;;;;;5016801;28;21040;-70
2023/06/21 09:04:57;;;;;;;2.80;2.70;;;24.40;46.70;;;;;;5016839;28;20522;-70
2023/06/21 09:07:23;;;;;;;3.20;3.10;;;24.50;46.70;;;;;;5012642;28;20981;-70
2023/06/21 09:09:51;;;;;;;3.30;3.10;;;24.40;46.70;;;;;;5008905;28;20583;-71
2023/06/21 09:12:17;;;;;;;2.53;2.43;;;24.50;46.80;;;;;;5010086;28;21086;-70
2023/06/21 09:14:43;;;;;;;2.90;2.77;;;24.50;46.70;;;;;;5010214;28;20475;-71
2023/06/21 09:17:11;;;;;;;2.87;2.77;;;24.50;46.80;;;;;;5005600;28;20792;-71
2023/06/21 09:19:36;;;;;;;2.67;2.57;;;24.50;46.70;;;;;;5015144;28;20240;-70
2023/06/21 09:22:02;;;;;;;2.50;2.40;;;24.50;46.80;;;;;;5017428;28;20432;-71
2023/06/21 09:24:28;;;;;;;2.97;2.50;;;24.50;46.70;;;;;;5002451;28;20225;-71
2023/06/21 09:26:53;;;;;;;2.50;2.40;;;24.50;46.70;;;;;;4998721;28;20238;-71
2023/06/21 09:29:20;;;;;;;2.87;2.67;;;24.50;46.70;;;;;;5005494;28;21142;-70
2023/06/21 09:31:45;;;;;;;2.77;2.67;;;24.50;46.80;;;;;;5013611;28;20218;-71
2023/06/21 09:34:11;;;;;;;2.60;2.50;;;24.50;46.80;;;;;;5030422;28;20482;-71
2023/06/21 09:36:40;;;;;;;2.60;2.50;;;24.50;46.80;;;;;;5013661;28;20222;-71
2023/06/21 09:39:10;;;;;;;2.80;2.60;;;24.50;47.10;;;;;;5011888;28;20238;-71
2023/06/21 09:41:36;;;;;;;2.90;2.70;;;24.50;46.70;;;;;;5002818;28;20997;-71
2023/06/21 09:44:02;;;;;;;2.83;2.70;;;24.50;46.70;;;;;;5013420;28;20455;-71
2023/06/21 09:46:28;;;;;;;2.50;2.30;;;24.50;46.80;;;;;;5018827;28;20455;-71
2023/06/21 09:48:53;;;;;;;2.70;2.50;;;24.50;46.80;;;;;;5011033;28;20234;-71
2023/06/21 09:51:23;;;;;;;3.07;2.97;;;24.50;46.70;;;;;;5010694;28;20226;-71
2023/06/21 09:53:50;;;;;;;3.37;3.23;;;24.50;46.70;;;;;;5018299;28;20693;-71
2023/06/21 09:56:18;;;;;;;3.83;3.50;;;24.50;46.70;;;;;;5005492;28;20518;-71
2023/06/21 09:58:44;;;;;;;2.77;2.67;;;24.50;46.70;;;;;;4998845;28;21030;-71
2023/06/21 10:01:15;;;;;;;2.83;2.73;;;24.50;46.70;;;;;;5012108;28;20472;-70
2023/06/21 10:03:43;;;;;;;2.70;2.50;;;24.50;46.80;;;;;;5018145;28;21120;-71
2023/06/21 10:06:14;;;;;;;3.20;3.00;;;24.50;46.70;;;;;;5007110;28;20511;-71
2023/06/21 10:08:40;;;;;;;3.00;2.80;;;24.50;46.80;;;;;;5028737;28;20469;-71
2023/06/21 10:11:05;;;;;;;3.17;2.97;;;24.50;46.70;;;;;;5008927;28;20457;-71
2023/06/21 10:13:33;;;;;;;2.80;2.70;;;24.50;46.70;;;;;;5009871;28;20286;-71
2023/06/21 10:16:01;;;;;;;2.93;2.73;;;24.50;46.80;;;;;;5014445;28;20210;-72
2023/06/21 10:18:27;;;;;;;2.90;2.70;;;24.50;46.80;;;;;;5022228;28;20563;-71
2023/06/21 10:20:57;;;;;;;3.17;2.97;;;24.50;46.70;;;;;;5005855;28;20439;-71
2023/06/21 10:23:28;;;;;;;2.80;2.60;;;24.50;46.70;;;;;;5016341;28;20460;-71
2023/06/21 10:25:58;;;;;;;3.17;2.97;;;24.50;46.70;;;;;;5011413;28;20467;-71
2023/06/21 10:28:27;;;;;;;3.07;2.87;;;24.50;46.80;;;;;;5017734;28;20463;-71
2023/06/21 10:30:55;;;;;;;2.77;2.60;;;24.50;46.70;;;;;;5002175;28;21022;-71
2023/06/21 10:33:21;;;;;;;4.67;2.67;;;24.50;46.80;;;;;;5018315;28;20446;-71
2023/06/21 10:35:48;;;;;;;3.27;3.07;;;24.50;46.80;;;;;;5007735;28;20468;-70
2023/06/21 10:38:44;;;;;;;2.93;2.73;;;24.50;46.80;;;;;;5019970;28;20488;-70
2023/06/21 10:41:12;;;;;;;2.60;2.50;;;24.50;46.80;;;;;;5013401;28;20883;-71
2023/06/21 10:43:40;;;;;;;3.50;3.20;;;24.50;46.80;;;;;;5011721;28;21140;-71
2023/06/21 10:46:08;;;;;;;3.13;2.97;;;24.50;46.80;;;;;;5006252;28;20557;-71
2023/06/21 10:48:34;;;;;;;3.10;2.90;;;24.50;46.80;;;;;;5018463;28;20460;-71
2023/06/21 10:51:01;;;;;;;2.67;2.47;;;24.50;46.90;;;;;;5008384;28;20531;-71
2023/06/21 10:53:33;;;;;;;2.50;2.40;;;24.50;46.80;;;;;;5010803;28;20452;-71
2023/06/21 10:56:02;;;;;;;3.30;3.10;;;24.50;47.60;;;;;;4995278;28;20507;-71
2023/06/21 10:58:28;;;;;;;3.00;2.90;;;24.50;46.80;;;;;;5002384;28;20471;-71
2023/06/21 11:00:55;;;;;;;3.30;3.10;;;24.50;46.80;;;;;;5007594;28;21065;-70
2023/06/21 11:03:25;;;;;;;3.03;2.93;;;24.50;46.80;;;;;;5014444;28;20479;-70
2023/06/21 11:06:21;;;;;;;2.80;2.60;;;24.50;46.80;;;;;;5018387;28;20470;-71
2023/06/21 11:08:46;;;;;;;3.67;3.47;;;24.50;46.80;;;;;;5020482;28;21048;-71
2023/06/21 11:11:32;;;;;;;3.00;2.80;;;24.50;46.80;;;;;;5017797;28;20468;-71
2023/06/21 11:14:00;;;;;;;3.03;2.90;;;24.50;46.80;;;;;;5021260;28;20371;-72
2023/06/21 11:16:26;;;;;;;3.30;3.10;;;24.50;46.80;;;;;;5009404;28;20475;-71
2023/06/21 11:18:59;;;;;;;3.23;3.07;;;24.50;46.80;;;;;;5015665;28;20456;-70
2023/06/21 11:21:46;;;;;;;3.47;3.27;;;24.50;46.80;;;;;;5016512;28;20630;-70
2023/06/21 11:24:18;;;;;;;3.50;3.30;;;24.50;46.80;;;;;;5016220;28;20518;-70
2023/06/21 11:27:01;;;;;;;3.40;3.20;;;24.50;46.90;;;;;;5016674;28;20490;-71
2023/06/21 11:29:38;;;;;;;3.47;3.27;;;24.50;46.80;;;;;;5011105;28;20474;-71
2023/06/21 11:32:10;;;;;;;3.57;3.37;;;24.50;46.80;;;;;;5001183;28;20443;-71
2023/06/21 11:34:36;;;;;;;3.13;2.93;;;24.50;46.80;;;;;;5011604;28;20839;-71
2023/06/21 11:37:47;;;;;;;3.13;3.00;;;24.50;46.90;;;;;;5018298;28;20471;-73
2023/06/21 11:40:15;;;;;;;2.90;2.70;;;24.50;47.60;;;;;;4969083;28;20259;-69
2023/06/21 11:42:48;;;;;;;3.33;3.13;;;24.50;46.90;;;;;;5006131;28;20522;-70
2023/06/21 11:45:27;;;;;;;3.40;3.20;;;24.50;46.80;;;;;;4999591;28;20457;-70
2023/06/21 11:48:08;;;;;;;3.40;3.20;;;24.50;46.80;;;;;;5005056;28;20447;-70
2023/06/21 11:50:49;;;;;;;3.40;3.20;;;24.50;46.90;;;;;;5012226;28;20443;-70
2023/06/21 11:53:17;;;;;;;3.20;3.10;;;24.50;46.90;;;;;;5014688;28;20479;-70
2023/06/21 11:55:43;;;;;;;3.23;3.03;;;24.50;46.90;;;;;;5015178;28;20464;-70
2023/06/21 11:58:09;;;;;;;3.53;3.33;;;24.50;47.00;;;;;;5022690;28;20482;-71
2023/06/21 12:00:35;;;;;;;3.20;3.00;;;24.50;47.00;;;;;;5015879;28;20508;-71
2023/06/21 12:03:02;;;;;;;3.33;3.13;;;24.50;46.90;;;;;;5023106;28;20978;-71
2023/06/21 12:05:44;;;;;;;3.33;3.13;;;24.50;46.90;;;;;;5010350;28;20224;-72
2023/06/21 12:08:10;;;;;;;3.43;3.23;;;24.50;46.80;;;;;;4999124;28;20460;-70
2023/06/21 12:10:35;;;;;;;3.10;2.90;;;24.50;46.90;;;;;;4988317;28;20566;-71
2023/06/21 12:13:08;;;;;;;3.87;3.67;;;24.50;46.90;;;;;;5013105;28;20215;-72
2023/06/21 12:15:33;;;;;;;3.93;3.73;;;24.50;46.90;;;;;;5012231;28;20215;-71
2023/06/21 12:17:59;;;;;;;2.93;2.70;;;24.50;46.90;;;;;;5017779;28;20793;-71
2023/06/21 12:20:25;;;;;;;3.33;3.13;;;24.50;46.90;;;;;;5014640;28;20750;-71
2023/06/21 12:22:50;;;;;;;3.17;3.03;;;24.50;46.90;;;;;;5014279;28;21797;-72
2023/06/21 12:25:16;;;;;;;3.30;3.13;;;24.50;46.80;;;;;;5004113;28;20726;-72
2023/06/21 12:27:57;;;;;;;3.33;3.13;;;24.50;46.90;;;;;;5012529;28;20695;-72
2023/06/21 12:30:25;;;;;;;3.00;2.90;;;24.50;46.90;;;;;;5018234;28;20227;-71
2023/06/21 12:32:51;;;;;;;3.03;2.83;;;24.50;46.90;;;;;;5021529;28;20447;-71
2023/06/21 12:35:17;;;;;;;3.30;3.13;;;24.50;47.00;;;;;;5019643;28;20478;-72
2023/06/21 12:37:45;;;;;;;3.40;3.20;;;24.50;46.90;;;;;;5021571;28;20601;-72
2023/06/21 12:40:17;;;;;;;3.10;3.00;;;24.50;46.90;;;;;;5014543;28;20502;-71
2023/06/21 12:42:45;;;;;;;2.80;2.70;;;24.50;46.90;;;;;;5017702;28;20449;-72
2023/06/21 12:45:18;;;;;;;3.40;3.20;;;24.50;46.90;;;;;;5010181;28;20510;-73
2023/06/21 12:47:47;;;;;;;3.13;2.93;;;24.50;46.90;;;;;;5016161;28;20838;-73
2023/06/21 12:50:20;;;;;;;2.93;2.83;;;24.50;47.00;;;;;;5000853;28;20526;-73